sensor_id;sensor_type;location;lat;lon;timestamp;P1;durP1;ratioP1;P2;durP2;ratioP2
78426;SDS011;67722;50.204;8.570;2023-02-28T00:01:31;2.72;;;2.35;;
78426;SDS011;67722;50.204;8.570;2023-02-28T00:03:57;2.45;;;1.42;;
78426;SDS011;67722;50.204;8.570;2023-02-28T00:06:22;3.70;;;1.80;;
78426;SDS011;67722;50.204;8.570;2023-02-28T00:08:49;2.05;;;1.42;;
78426;SDS011;67722;50.204;8.570;2023-02-28T00:11:14;2.23;;;1.30;;
78426;SDS011;67722;50.204;8.570;2023-02-28T00:13:40;3.22;;;1.75;;
78426;SDS011;67722;50.204;8.570;2023-02-28T00:16:09;4.13;;;1.70;;
78426;SDS011;67722;50.204;8.570;2023-02-28T00:18:37;2.78;;;1.65;;
78426;SDS011;67722;50.204;8.570;2023-02-28T00:21:02;2.30;;;1.40;;
78426;SDS011;67722;50.204;8.570;2023-02-28T00:23:28;3.03;;;1.73;;
78426;SDS011;67722;50.204;8.570;2023-02-28T00:25:54;3.53;;;2.38;;
78426;SDS011;67722;50.204;8.570;2023-02-28T00:28:20;3.50;;;2.10;;
78426;SDS011;67722;50.204;8.570;2023-02-28T00:30:45;5.97;;;2.15;;
78426;SDS011;67722;50.204;8.570;2023-02-28T00:33:11;2.58;;;2.10;;
78426;SDS011;67722;50.204;8.570;2023-02-28T00:35:36;3.42;;;2.03;;
78426;SDS011;67722;50.204;8.570;2023-02-28T00:38:02;4.33;;;2.30;;
78426;SDS011;67722;50.204;8.570;2023-02-28T00:40:27;3.45;;;2.35;;
78426;SDS011;67722;50.204;8.570;2023-02-28T00:42:53;3.70;;;2.42;;
78426;SDS011;67722;50.204;8.570;2023-02-28T00:45:18;2.67;;;1.60;;
78426;SDS011;67722;50.204;8.570;2023-02-28T00:47:44;5.78;;;3.33;;
78426;SDS011;67722;50.204;8.570;2023-02-28T00:50:11;6.80;;;3.38;;
78426;SDS011;67722;50.204;8.570;2023-02-28T00:52:37;5.47;;;2.72;;
78426;SDS011;67722;50.204;8.570;2023-02-28T00:55:02;3.83;;;2.22;;
78426;SDS011;67722;50.204;8.570;2023-02-28T00:57:28;3.58;;;2.25;;
78426;SDS011;67722;50.204;8.570;2023-02-28T00:59:53;4.53;;;2.65;;
78426;SDS011;67722;50.204;8.570;2023-02-28T01:02:22;4.07;;;2.53;;
78426;SDS011;67722;50.204;8.570;2023-02-28T01:04:47;5.43;;;3.00;;
78426;SDS011;67722;50.204;8.570;2023-02-28T01:07:13;3.67;;;2.40;;
78426;SDS011;67722;50.204;8.570;2023-02-28T01:09:39;3.63;;;1.98;;
78426;SDS011;67722;50.204;8.570;2023-02-28T01:12:05;6.70;;;2.50;;
78426;SDS011;67722;50.204;8.570;2023-02-28T01:14:31;4.07;;;2.20;;
78426;SDS011;67722;50.204;8.570;2023-02-28T01:16:57;3.17;;;2.20;;
78426;SDS011;67722;50.204;8.570;2023-02-28T01:21:47;3.53;;;1.93;;
78426;SDS011;67722;50.204;8.570;2023-02-28T01:26:38;3.07;;;1.87;;
78426;SDS011;67722;50.204;8.570;2023-02-28T01:29:03;3.27;;;1.53;;
78426;SDS011;67722;50.204;8.570;2023-02-28T01:33:54;3.67;;;2.00;;
78426;SDS011;67722;50.204;8.570;2023-02-28T01:38:46;3.03;;;2.20;;
78426;SDS011;67722;50.204;8.570;2023-02-28T01:41:34;3.88;;;1.83;;
78426;SDS011;67722;50.204;8.570;2023-02-28T01:44:00;4.13;;;2.25;;
78426;SDS011;67722;50.204;8.570;2023-02-28T01:46:31;5.05;;;2.28;;
78426;SDS011;67722;50.204;8.570;2023-02-28T01:48:59;3.35;;;2.28;;
78426;SDS011;67722;50.204;8.570;2023-02-28T01:51:33;4.07;;;3.08;;
78426;SDS011;67722;50.204;8.570;2023-02-28T01:54:09;5.22;;;2.30;;
78426;SDS011;67722;50.204;8.570;2023-02-28T01:56:38;3.65;;;2.08;;
78426;SDS011;67722;50.204;8.570;2023-02-28T01:59:07;3.25;;;2.22;;
78426;SDS011;67722;50.204;8.570;2023-02-28T02:01:32;4.05;;;1.90;;
78426;SDS011;67722;50.204;8.570;2023-02-28T02:03:59;3.57;;;2.03;;
78426;SDS011;67722;50.204;8.570;2023-02-28T02:06:40;3.90;;;2.45;;
78426;SDS011;67722;50.204;8.570;2023-02-28T02:09:08;4.22;;;2.20;;
78426;SDS011;67722;50.204;8.570;2023-02-28T02:11:34;3.60;;;2.28;;
78426;SDS011;67722;50.204;8.570;2023-02-28T02:14:43;5.13;;;2.53;;
78426;SDS011;67722;50.204;8.570;2023-02-28T02:33:35;2.47;;;1.63;;
78426;SDS011;67722;50.204;8.570;2023-02-28T02:36:25;3.55;;;1.75;;
78426;SDS011;67722;50.204;8.570;2023-02-28T02:39:12;3.88;;;1.70;;
78426;SDS011;67722;50.204;8.570;2023-02-28T02:41:41;3.63;;;2.58;;
78426;SDS011;67722;50.204;8.570;2023-02-28T02:46:44;3.30;;;1.95;;
78426;SDS011;67722;50.204;8.570;2023-02-28T02:49:15;2.28;;;1.80;;
78426;SDS011;67722;50.204;8.570;2023-02-28T02:51:43;2.42;;;1.73;;
78426;SDS011;67722;50.204;8.570;2023-02-28T02:54:16;3.30;;;2.38;;
78426;SDS011;67722;50.204;8.570;2023-02-28T02:56:45;3.17;;;1.92;;
78426;SDS011;67722;50.204;8.570;2023-02-28T02:59:12;3.63;;;2.15;;
78426;SDS011;67722;50.204;8.570;2023-02-28T03:01:39;2.38;;;1.67;;
78426;SDS011;67722;50.204;8.570;2023-02-28T03:04:10;4.63;;;2.58;;
78426;SDS011;67722;50.204;8.570;2023-02-28T03:06:38;3.60;;;2.30;;
78426;SDS011;67722;50.204;8.570;2023-02-28T03:09:04;4.50;;;2.63;;
78426;SDS011;67722;50.204;8.570;2023-02-28T03:27:54;3.85;;;2.13;;
78426;SDS011;67722;50.204;8.570;2023-02-28T03:35:31;2.40;;;1.73;;
78426;SDS011;67722;50.204;8.570;2023-02-28T03:38:05;3.90;;;1.83;;
78426;SDS011;67722;50.204;8.570;2023-02-28T03:40:46;5.93;;;2.40;;
78426;SDS011;67722;50.204;8.570;2023-02-28T03:43:17;3.92;;;2.20;;
78426;SDS011;67722;50.204;8.570;2023-02-28T03:45:45;4.05;;;2.38;;
78426;SDS011;67722;50.204;8.570;2023-02-28T03:50:45;3.15;;;1.50;;
78426;SDS011;67722;50.204;8.570;2023-02-28T03:53:19;3.75;;;1.90;;
78426;SDS011;67722;50.204;8.570;2023-02-28T03:55:48;2.63;;;1.67;;
78426;SDS011;67722;50.204;8.570;2023-02-28T03:58:20;5.22;;;1.80;;
78426;SDS011;67722;50.204;8.570;2023-02-28T04:00:53;3.33;;;2.05;;
78426;SDS011;67722;50.204;8.570;2023-02-28T04:03:22;3.92;;;1.60;;
78426;SDS011;67722;50.204;8.570;2023-02-28T04:05:52;3.97;;;2.30;;
78426;SDS011;67722;50.204;8.570;2023-02-28T04:08:19;7.75;;;2.08;;
78426;SDS011;67722;50.204;8.570;2023-02-28T04:13:11;2.63;;;1.80;;
78426;SDS011;67722;50.204;8.570;2023-02-28T04:18:02;5.07;;;1.77;;
78426;SDS011;67722;50.204;8.570;2023-02-28T04:22:53;3.53;;;1.70;;
78426;SDS011;67722;50.204;8.570;2023-02-28T04:27:43;2.50;;;2.07;;
78426;SDS011;67722;50.204;8.570;2023-02-28T04:32:35;4.43;;;2.40;;
78426;SDS011;67722;50.204;8.570;2023-02-28T04:37:25;3.23;;;1.70;;
78426;SDS011;67722;50.204;8.570;2023-02-28T04:39:53;2.60;;;1.60;;
78426;SDS011;67722;50.204;8.570;2023-02-28T04:44:44;2.63;;;1.50;;
78426;SDS011;67722;50.204;8.570;2023-02-28T04:49:35;1.90;;;1.20;;
78426;SDS011;67722;50.204;8.570;2023-02-28T04:54:25;2.10;;;1.17;;
78426;SDS011;67722;50.204;8.570;2023-02-28T04:59:16;2.83;;;1.77;;
78426;SDS011;67722;50.204;8.570;2023-02-28T05:04:10;2.90;;;1.33;;
78426;SDS011;67722;50.204;8.570;2023-02-28T05:06:35;2.00;;;1.50;;
78426;SDS011;67722;50.204;8.570;2023-02-28T05:11:27;3.07;;;1.20;;
78426;SDS011;67722;50.204;8.570;2023-02-28T05:13:54;1.77;;;1.30;;
78426;SDS011;67722;50.204;8.570;2023-02-28T05:16:20;2.95;;;1.38;;
78426;SDS011;67722;50.204;8.570;2023-02-28T05:23:49;2.25;;;1.00;;
78426;SDS011;67722;50.204;8.570;2023-02-28T05:26:15;2.63;;;1.60;;
78426;SDS011;67722;50.204;8.570;2023-02-28T05:28:41;3.13;;;1.35;;
78426;SDS011;67722;50.204;8.570;2023-02-28T05:33:32;3.50;;;1.13;;
78426;SDS011;67722;50.204;8.570;2023-02-28T05:35:57;2.47;;;1.50;;
78426;SDS011;67722;50.204;8.570;2023-02-28T05:40:48;2.53;;;1.27;;
78426;SDS011;67722;50.204;8.570;2023-02-28T05:45:39;1.30;;;0.73;;
78426;SDS011;67722;50.204;8.570;2023-02-28T05:48:04;2.70;;;1.48;;
78426;SDS011;67722;50.204;8.570;2023-02-28T05:50:30;2.80;;;1.63;;
78426;SDS011;67722;50.204;8.570;2023-02-28T05:57:57;3.60;;;1.42;;
78426;SDS011;67722;50.204;8.570;2023-02-28T06:00:23;1.70;;;1.25;;
78426;SDS011;67722;50.204;8.570;2023-02-28T06:02:49;2.58;;;1.55;;
78426;SDS011;67722;50.204;8.570;2023-02-28T06:05:17;3.00;;;1.55;;
78426;SDS011;67722;50.204;8.570;2023-02-28T06:07:43;5.75;;;2.10;;
78426;SDS011;67722;50.204;8.570;2023-02-28T06:10:09;3.92;;;1.80;;
78426;SDS011;67722;50.204;8.570;2023-02-28T06:12:36;3.00;;;1.80;;
78426;SDS011;67722;50.204;8.570;2023-02-28T06:15:01;4.72;;;2.08;;
78426;SDS011;67722;50.204;8.570;2023-02-28T06:17:27;2.58;;;1.90;;
78426;SDS011;67722;50.204;8.570;2023-02-28T06:19:52;3.77;;;1.83;;
78426;SDS011;67722;50.204;8.570;2023-02-28T06:22:17;5.28;;;1.85;;
78426;SDS011;67722;50.204;8.570;2023-02-28T06:27:08;1.83;;;1.23;;
78426;SDS011;67722;50.204;8.570;2023-02-28T06:29:35;4.65;;;1.60;;
78426;SDS011;67722;50.204;8.570;2023-02-28T06:32:01;2.15;;;1.55;;
78426;SDS011;67722;50.204;8.570;2023-02-28T06:34:26;2.38;;;1.48;;
78426;SDS011;67722;50.204;8.570;2023-02-28T06:36:52;4.55;;;2.03;;
78426;SDS011;67722;50.204;8.570;2023-02-28T06:41:43;2.60;;;1.53;;
78426;SDS011;67722;50.204;8.570;2023-02-28T06:44:17;3.75;;;1.25;;
78426;SDS011;67722;50.204;8.570;2023-02-28T06:46:43;3.10;;;1.63;;
78426;SDS011;67722;50.204;8.570;2023-02-28T06:49:09;2.58;;;2.20;;
78426;SDS011;67722;50.204;8.570;2023-02-28T06:51:36;2.53;;;1.52;;
78426;SDS011;67722;50.204;8.570;2023-02-28T06:54:02;3.42;;;1.35;;
78426;SDS011;67722;50.204;8.570;2023-02-28T06:56:27;2.25;;;1.52;;
78426;SDS011;67722;50.204;8.570;2023-02-28T07:01:18;3.70;;;1.53;;
78426;SDS011;67722;50.204;8.570;2023-02-28T07:06:09;3.10;;;1.97;;
78426;SDS011;67722;50.204;8.570;2023-02-28T07:11:01;1.85;;;1.25;;
78426;SDS011;67722;50.204;8.570;2023-02-28T07:13:26;2.65;;;1.63;;
78426;SDS011;67722;50.204;8.570;2023-02-28T07:15:59;5.20;;;2.30;;
78426;SDS011;67722;50.204;8.570;2023-02-28T07:18:25;4.78;;;1.63;;
78426;SDS011;67722;50.204;8.570;2023-02-28T07:20:51;1.95;;;1.35;;
78426;SDS011;67722;50.204;8.570;2023-02-28T07:23:16;2.75;;;1.65;;
78426;SDS011;67722;50.204;8.570;2023-02-28T07:25:42;3.25;;;2.05;;
78426;SDS011;67722;50.204;8.570;2023-02-28T07:28:07;2.97;;;1.43;;
78426;SDS011;67722;50.204;8.570;2023-02-28T07:30:32;4.18;;;2.28;;
78426;SDS011;67722;50.204;8.570;2023-02-28T07:32:58;2.93;;;1.97;;
78426;SDS011;67722;50.204;8.570;2023-02-28T07:35:23;2.70;;;1.90;;
78426;SDS011;67722;50.204;8.570;2023-02-28T07:37:48;3.95;;;1.67;;
78426;SDS011;67722;50.204;8.570;2023-02-28T07:40:14;2.95;;;1.80;;
78426;SDS011;67722;50.204;8.570;2023-02-28T07:42:41;3.78;;;2.30;;
78426;SDS011;67722;50.204;8.570;2023-02-28T07:45:07;3.92;;;2.90;;
78426;SDS011;67722;50.204;8.570;2023-02-28T07:47:33;3.05;;;2.08;;
78426;SDS011;67722;50.204;8.570;2023-02-28T07:49:59;4.55;;;2.25;;
78426;SDS011;67722;50.204;8.570;2023-02-28T07:52:24;3.75;;;2.28;;
78426;SDS011;67722;50.204;8.570;2023-02-28T07:54:50;4.47;;;1.73;;
78426;SDS011;67722;50.204;8.570;2023-02-28T07:57:16;3.15;;;2.10;;
78426;SDS011;67722;50.204;8.570;2023-02-28T07:59:41;5.13;;;1.95;;
78426;SDS011;67722;50.204;8.570;2023-02-28T08:02:09;5.47;;;2.05;;
78426;SDS011;67722;50.204;8.570;2023-02-28T08:04:37;3.70;;;2.38;;
78426;SDS011;67722;50.204;8.570;2023-02-28T08:07:02;5.07;;;2.70;;
78426;SDS011;67722;50.204;8.570;2023-02-28T08:09:28;3.50;;;2.37;;
78426;SDS011;67722;50.204;8.570;2023-02-28T08:11:54;4.20;;;2.50;;
78426;SDS011;67722;50.204;8.570;2023-02-28T08:14:20;3.73;;;2.13;;
78426;SDS011;67722;50.204;8.570;2023-02-28T08:16:45;3.17;;;1.60;;
78426;SDS011;67722;50.204;8.570;2023-02-28T08:19:10;7.07;;;2.67;;
78426;SDS011;67722;50.204;8.570;2023-02-28T08:21:35;3.30;;;2.40;;
78426;SDS011;67722;50.204;8.570;2023-02-28T08:24:01;4.30;;;2.53;;
78426;SDS011;67722;50.204;8.570;2023-02-28T08:26:26;4.20;;;2.13;;
78426;SDS011;67722;50.204;8.570;2023-02-28T08:28:51;4.57;;;2.27;;
78426;SDS011;67722;50.204;8.570;2023-02-28T08:31:17;3.57;;;2.23;;
78426;SDS011;67722;50.204;8.570;2023-02-28T08:33:42;3.28;;;2.40;;
78426;SDS011;67722;50.204;8.570;2023-02-28T08:36:09;4.55;;;2.28;;
78426;SDS011;67722;50.204;8.570;2023-02-28T08:38:35;3.92;;;2.47;;
78426;SDS011;67722;50.204;8.570;2023-02-28T08:41:05;6.20;;;3.13;;
78426;SDS011;67722;50.204;8.570;2023-02-28T08:43:33;4.38;;;2.75;;
78426;SDS011;67722;50.204;8.570;2023-02-28T08:45:58;3.58;;;2.60;;
78426;SDS011;67722;50.204;8.570;2023-02-28T08:48:24;2.70;;;2.10;;
78426;SDS011;67722;50.204;8.570;2023-02-28T08:50:58;5.10;;;2.25;;
78426;SDS011;67722;50.204;8.570;2023-02-28T08:53:24;3.72;;;2.03;;
78426;SDS011;67722;50.204;8.570;2023-02-28T08:55:55;3.45;;;2.58;;
78426;SDS011;67722;50.204;8.570;2023-02-28T08:58:28;3.38;;;2.05;;
78426;SDS011;67722;50.204;8.570;2023-02-28T09:00:54;2.95;;;2.25;;
78426;SDS011;67722;50.204;8.570;2023-02-28T09:03:20;2.78;;;2.10;;
78426;SDS011;67722;50.204;8.570;2023-02-28T09:05:55;3.08;;;2.15;;
78426;SDS011;67722;50.204;8.570;2023-02-28T09:08:22;2.90;;;2.42;;
78426;SDS011;67722;50.204;8.570;2023-02-28T09:10:48;3.35;;;2.22;;
78426;SDS011;67722;50.204;8.570;2023-02-28T09:13:14;2.90;;;2.38;;
78426;SDS011;67722;50.204;8.570;2023-02-28T09:15:39;2.33;;;1.73;;
78426;SDS011;67722;50.204;8.570;2023-02-28T09:18:04;3.85;;;2.33;;
78426;SDS011;67722;50.204;8.570;2023-02-28T09:20:30;3.28;;;2.15;;
78426;SDS011;67722;50.204;8.570;2023-02-28T09:22:55;3.43;;;2.27;;
78426;SDS011;67722;50.204;8.570;2023-02-28T09:25:20;3.80;;;2.50;;
78426;SDS011;67722;50.204;8.570;2023-02-28T09:27:46;2.70;;;1.87;;
78426;SDS011;67722;50.204;8.570;2023-02-28T09:30:11;3.17;;;1.85;;
78426;SDS011;67722;50.204;8.570;2023-02-28T09:32:37;2.90;;;2.22;;
78426;SDS011;67722;50.204;8.570;2023-02-28T09:35:03;3.63;;;2.13;;
78426;SDS011;67722;50.204;8.570;2023-02-28T09:37:29;2.92;;;2.28;;
78426;SDS011;67722;50.204;8.570;2023-02-28T09:39:56;3.50;;;2.80;;
78426;SDS011;67722;50.204;8.570;2023-02-28T09:42:23;4.15;;;3.40;;
78426;SDS011;67722;50.204;8.570;2023-02-28T09:44:52;3.75;;;2.67;;
78426;SDS011;67722;50.204;8.570;2023-02-28T09:47:21;4.03;;;2.40;;
78426;SDS011;67722;50.204;8.570;2023-02-28T09:49:52;3.30;;;2.95;;
78426;SDS011;67722;50.204;8.570;2023-02-28T09:52:19;5.43;;;2.20;;
78426;SDS011;67722;50.204;8.570;2023-02-28T09:54:47;3.38;;;2.13;;
78426;SDS011;67722;50.204;8.570;2023-02-28T10:05:31;3.42;;;3.13;;
78426;SDS011;67722;50.204;8.570;2023-02-28T10:10:58;4.10;;;2.17;;
78426;SDS011;67722;50.204;8.570;2023-02-28T10:16:21;3.50;;;2.58;;
78426;SDS011;67722;50.204;8.570;2023-02-28T10:18:55;4.32;;;2.67;;
78426;SDS011;67722;50.204;8.570;2023-02-28T10:21:33;3.38;;;2.38;;
78426;SDS011;67722;50.204;8.570;2023-02-28T10:24:02;5.30;;;2.50;;
78426;SDS011;67722;50.204;8.570;2023-02-28T10:26:30;3.70;;;2.60;;
78426;SDS011;67722;50.204;8.570;2023-02-28T10:28:56;3.70;;;2.25;;
78426;SDS011;67722;50.204;8.570;2023-02-28T10:31:21;3.90;;;2.58;;
78426;SDS011;67722;50.204;8.570;2023-02-28T10:33:47;3.80;;;2.03;;
78426;SDS011;67722;50.204;8.570;2023-02-28T10:36:17;4.18;;;2.55;;
78426;SDS011;67722;50.204;8.570;2023-02-28T10:38:45;4.10;;;2.72;;
78426;SDS011;67722;50.204;8.570;2023-02-28T10:41:12;4.78;;;2.30;;
78426;SDS011;67722;50.204;8.570;2023-02-28T10:46:48;3.58;;;2.80;;
78426;SDS011;67722;50.204;8.570;2023-02-28T10:49:20;4.35;;;2.15;;
78426;SDS011;67722;50.204;8.570;2023-02-28T10:51:47;4.45;;;2.45;;
78426;SDS011;67722;50.204;8.570;2023-02-28T10:54:17;4.82;;;2.20;;
78426;SDS011;67722;50.204;8.570;2023-02-28T10:56:44;4.32;;;2.10;;
78426;SDS011;67722;50.204;8.570;2023-02-28T10:59:29;4.03;;;2.40;;
78426;SDS011;67722;50.204;8.570;2023-02-28T11:01:56;4.40;;;2.05;;
78426;SDS011;67722;50.204;8.570;2023-02-28T11:06:58;3.15;;;2.85;;
78426;SDS011;67722;50.204;8.570;2023-02-28T11:09:29;3.65;;;2.47;;
78426;SDS011;67722;50.204;8.570;2023-02-28T11:11:57;3.45;;;2.03;;
78426;SDS011;67722;50.204;8.570;2023-02-28T11:14:30;4.32;;;2.88;;
78426;SDS011;67722;50.204;8.570;2023-02-28T11:16:58;4.38;;;2.20;;
78426;SDS011;67722;50.204;8.570;2023-02-28T11:19:38;7.47;;;3.17;;
78426;SDS011;67722;50.204;8.570;2023-02-28T11:22:06;4.13;;;2.10;;
78426;SDS011;67722;50.204;8.570;2023-02-28T11:24:33;4.70;;;3.58;;
78426;SDS011;67722;50.204;8.570;2023-02-28T11:27:00;6.63;;;3.15;;
78426;SDS011;67722;50.204;8.570;2023-02-28T11:29:32;5.05;;;2.25;;
78426;SDS011;67722;50.204;8.570;2023-02-28T11:32:18;5.07;;;2.38;;
78426;SDS011;67722;50.204;8.570;2023-02-28T11:34:46;3.88;;;2.38;;
78426;SDS011;67722;50.204;8.570;2023-02-28T11:37:13;5.15;;;3.03;;
78426;SDS011;67722;50.204;8.570;2023-02-28T11:39:40;4.57;;;2.55;;
78426;SDS011;67722;50.204;8.570;2023-02-28T11:42:22;3.97;;;2.17;;
78426;SDS011;67722;50.204;8.570;2023-02-28T11:55:41;4.32;;;2.83;;
78426;SDS011;67722;50.204;8.570;2023-02-28T12:03:25;4.35;;;2.67;;
78426;SDS011;67722;50.204;8.570;2023-02-28T12:19:42;4.38;;;3.08;;
78426;SDS011;67722;50.204;8.570;2023-02-28T12:27:21;6.32;;;3.63;;
78426;SDS011;67722;50.204;8.570;2023-02-28T12:32:33;5.32;;;3.35;;
78426;SDS011;67722;50.204;8.570;2023-02-28T12:37:37;7.18;;;3.78;;
78426;SDS011;67722;50.204;8.570;2023-02-28T12:40:34;3.85;;;3.25;;
78426;SDS011;67722;50.204;8.570;2023-02-28T12:43:12;4.43;;;3.05;;
78426;SDS011;67722;50.204;8.570;2023-02-28T12:45:44;7.55;;;4.15;;
78426;SDS011;67722;50.204;8.570;2023-02-28T12:48:20;4.47;;;2.78;;
78426;SDS011;67722;50.204;8.570;2023-02-28T12:53:18;5.77;;;4.17;;
78426;SDS011;67722;50.204;8.570;2023-02-28T12:58:19;6.43;;;3.20;;
78426;SDS011;67722;50.204;8.570;2023-02-28T13:01:04;3.88;;;3.38;;
78426;SDS011;67722;50.204;8.570;2023-02-28T13:03:38;4.63;;;3.13;;
78426;SDS011;67722;50.204;8.570;2023-02-28T13:06:14;5.07;;;3.33;;
78426;SDS011;67722;50.204;8.570;2023-02-28T13:08:59;5.72;;;3.53;;
78426;SDS011;67722;50.204;8.570;2023-02-28T13:11:31;5.28;;;2.97;;
78426;SDS011;67722;50.204;8.570;2023-02-28T13:14:03;4.25;;;2.97;;
78426;SDS011;67722;50.204;8.570;2023-02-28T13:19:20;4.07;;;3.03;;
78426;SDS011;67722;50.204;8.570;2023-02-28T13:21:48;4.32;;;3.17;;
78426;SDS011;67722;50.204;8.570;2023-02-28T13:24:35;4.45;;;3.53;;
78426;SDS011;67722;50.204;8.570;2023-02-28T13:34:39;8.15;;;3.28;;
78426;SDS011;67722;50.204;8.570;2023-02-28T13:42:30;5.00;;;3.70;;
78426;SDS011;67722;50.204;8.570;2023-02-28T13:47:31;5.05;;;2.70;;
78426;SDS011;67722;50.204;8.570;2023-02-28T13:50:14;4.78;;;2.88;;
78426;SDS011;67722;50.204;8.570;2023-02-28T14:03:56;7.55;;;4.15;;
78426;SDS011;67722;50.204;8.570;2023-02-28T14:06:49;5.07;;;2.63;;
78426;SDS011;67722;50.204;8.570;2023-02-28T14:12:18;5.55;;;3.38;;
78426;SDS011;67722;50.204;8.570;2023-02-28T14:15:01;5.32;;;2.78;;
78426;SDS011;67722;50.204;8.570;2023-02-28T14:17:27;4.78;;;3.38;;
78426;SDS011;67722;50.204;8.570;2023-02-28T14:19:52;5.75;;;2.78;;
78426;SDS011;67722;50.204;8.570;2023-02-28T14:28:02;4.85;;;3.28;;
78426;SDS011;67722;50.204;8.570;2023-02-28T14:38:55;5.38;;;3.28;;
78426;SDS011;67722;50.204;8.570;2023-02-28T14:41:32;5.22;;;2.83;;
78426;SDS011;67722;50.204;8.570;2023-02-28T14:44:13;5.00;;;2.60;;
78426;SDS011;67722;50.204;8.570;2023-02-28T14:46:39;7.03;;;3.03;;
78426;SDS011;67722;50.204;8.570;2023-02-28T14:49:06;5.50;;;4.00;;
78426;SDS011;67722;50.204;8.570;2023-02-28T14:51:37;4.80;;;2.95;;
78426;SDS011;67722;50.204;8.570;2023-02-28T14:54:03;4.40;;;2.95;;
78426;SDS011;67722;50.204;8.570;2023-02-28T14:56:36;3.75;;;2.53;;
78426;SDS011;67722;50.204;8.570;2023-02-28T14:59:02;5.10;;;3.08;;
78426;SDS011;67722;50.204;8.570;2023-02-28T15:01:28;7.90;;;3.17;;
78426;SDS011;67722;50.204;8.570;2023-02-28T15:04:02;5.88;;;3.10;;
78426;SDS011;67722;50.204;8.570;2023-02-28T15:06:32;7.50;;;3.15;;
78426;SDS011;67722;50.204;8.570;2023-02-28T15:09:14;4.53;;;3.17;;
78426;SDS011;67722;50.204;8.570;2023-02-28T15:11:47;7.82;;;3.15;;
78426;SDS011;67722;50.204;8.570;2023-02-28T15:14:15;6.25;;;4.20;;
78426;SDS011;67722;50.204;8.570;2023-02-28T15:16:44;5.47;;;2.92;;
78426;SDS011;67722;50.204;8.570;2023-02-28T15:19:30;6.88;;;3.25;;
78426;SDS011;67722;50.204;8.570;2023-02-28T15:22:00;3.53;;;2.65;;
78426;SDS011;67722;50.204;8.570;2023-02-28T15:24:47;5.40;;;2.67;;
78426;SDS011;67722;50.204;8.570;2023-02-28T15:27:15;4.82;;;2.45;;
78426;SDS011;67722;50.204;8.570;2023-02-28T15:29:57;4.88;;;2.85;;
78426;SDS011;67722;50.204;8.570;2023-02-28T15:32:28;5.22;;;3.05;;
78426;SDS011;67722;50.204;8.570;2023-02-28T15:34:54;6.78;;;2.80;;
78426;SDS011;67722;50.204;8.570;2023-02-28T15:39:58;4.72;;;2.58;;
78426;SDS011;67722;50.204;8.570;2023-02-28T15:42:39;4.88;;;2.88;;
78426;SDS011;67722;50.204;8.570;2023-02-28T15:45:04;6.30;;;3.20;;
78426;SDS011;67722;50.204;8.570;2023-02-28T15:47:30;4.85;;;2.92;;
78426;SDS011;67722;50.204;8.570;2023-02-28T15:50:00;4.38;;;3.22;;
78426;SDS011;67722;50.204;8.570;2023-02-28T15:58:04;5.30;;;3.67;;
78426;SDS011;67722;50.204;8.570;2023-02-28T16:00:31;6.18;;;3.20;;
78426;SDS011;67722;50.204;8.570;2023-02-28T16:02:59;4.85;;;3.13;;
78426;SDS011;67722;50.204;8.570;2023-02-28T16:05:26;5.80;;;3.17;;
78426;SDS011;67722;50.204;8.570;2023-02-28T16:08:13;6.32;;;3.00;;
78426;SDS011;67722;50.204;8.570;2023-02-28T16:10:39;4.68;;;2.88;;
78426;SDS011;67722;50.204;8.570;2023-02-28T16:13:05;6.38;;;3.13;;
78426;SDS011;67722;50.204;8.570;2023-02-28T16:15:31;5.70;;;3.47;;
78426;SDS011;67722;50.204;8.570;2023-02-28T16:18:07;5.03;;;2.42;;
78426;SDS011;67722;50.204;8.570;2023-02-28T16:20:33;5.82;;;3.03;;
78426;SDS011;67722;50.204;8.570;2023-02-28T16:22:59;7.00;;;2.57;;
78426;SDS011;67722;50.204;8.570;2023-02-28T16:25:34;4.93;;;2.88;;
78426;SDS011;67722;50.204;8.570;2023-02-28T16:28:01;7.07;;;4.03;;
78426;SDS011;67722;50.204;8.570;2023-02-28T16:30:27;5.75;;;3.45;;
78426;SDS011;67722;50.204;8.570;2023-02-28T16:32:56;6.20;;;3.15;;
78426;SDS011;67722;50.204;8.570;2023-02-28T16:35:22;5.97;;;3.55;;
78426;SDS011;67722;50.204;8.570;2023-02-28T16:37:47;4.15;;;2.65;;
78426;SDS011;67722;50.204;8.570;2023-02-28T16:40:17;5.47;;;2.60;;
78426;SDS011;67722;50.204;8.570;2023-02-28T16:42:45;7.25;;;3.03;;
78426;SDS011;67722;50.204;8.570;2023-02-28T16:45:22;4.43;;;2.55;;
78426;SDS011;67722;50.204;8.570;2023-02-28T16:47:48;6.32;;;2.65;;
78426;SDS011;67722;50.204;8.570;2023-02-28T16:50:23;5.27;;;2.90;;
78426;SDS011;67722;50.204;8.570;2023-02-28T16:52:50;3.35;;;2.15;;
78426;SDS011;67722;50.204;8.570;2023-02-28T16:55:19;5.00;;;2.58;;
78426;SDS011;67722;50.204;8.570;2023-02-28T16:57:53;4.32;;;2.95;;
78426;SDS011;67722;50.204;8.570;2023-02-28T17:00:19;7.40;;;4.00;;
78426;SDS011;67722;50.204;8.570;2023-02-28T17:02:45;5.55;;;2.53;;
78426;SDS011;67722;50.204;8.570;2023-02-28T17:05:11;5.73;;;3.00;;
78426;SDS011;67722;50.204;8.570;2023-02-28T17:07:37;5.93;;;3.35;;
78426;SDS011;67722;50.204;8.570;2023-02-28T17:10:08;5.35;;;2.92;;
78426;SDS011;67722;50.204;8.570;2023-02-28T17:12:35;4.63;;;2.88;;
78426;SDS011;67722;50.204;8.570;2023-02-28T17:15:01;6.20;;;3.00;;
78426;SDS011;67722;50.204;8.570;2023-02-28T17:17:26;4.93;;;2.87;;
78426;SDS011;67722;50.204;8.570;2023-02-28T17:19:51;10.23;;;2.85;;
78426;SDS011;67722;50.204;8.570;2023-02-28T17:22:17;5.60;;;2.28;;
78426;SDS011;67722;50.204;8.570;2023-02-28T17:24:42;5.07;;;2.27;;
78426;SDS011;67722;50.204;8.570;2023-02-28T17:27:09;4.55;;;2.42;;
78426;SDS011;67722;50.204;8.570;2023-02-28T17:29:36;5.22;;;2.40;;
78426;SDS011;67722;50.204;8.570;2023-02-28T17:32:02;7.38;;;2.72;;
78426;SDS011;67722;50.204;8.570;2023-02-28T17:34:27;4.57;;;2.80;;
78426;SDS011;67722;50.204;8.570;2023-02-28T17:36:52;10.07;;;3.20;;
78426;SDS011;67722;50.204;8.570;2023-02-28T17:39:18;4.68;;;2.80;;
78426;SDS011;67722;50.204;8.570;2023-02-28T17:41:51;4.43;;;2.85;;
78426;SDS011;67722;50.204;8.570;2023-02-28T17:44:17;5.22;;;2.75;;
78426;SDS011;67722;50.204;8.570;2023-02-28T17:46:43;3.97;;;2.50;;
78426;SDS011;67722;50.204;8.570;2023-02-28T17:49:08;9.90;;;3.33;;
78426;SDS011;67722;50.204;8.570;2023-02-28T17:51:33;4.38;;;2.63;;
78426;SDS011;67722;50.204;8.570;2023-02-28T17:53:59;5.73;;;3.10;;
78426;SDS011;67722;50.204;8.570;2023-02-28T17:56:25;6.95;;;2.90;;
78426;SDS011;67722;50.204;8.570;2023-02-28T17:58:54;6.82;;;3.30;;
78426;SDS011;67722;50.204;8.570;2023-02-28T18:01:20;4.93;;;2.83;;
78426;SDS011;67722;50.204;8.570;2023-02-28T18:03:46;4.00;;;2.75;;
78426;SDS011;67722;50.204;8.570;2023-02-28T18:06:54;4.18;;;2.72;;
78426;SDS011;67722;50.204;8.570;2023-02-28T18:09:11;7.35;;;2.60;;
78426;SDS011;67722;50.204;8.570;2023-02-28T18:11:38;4.90;;;3.28;;
78426;SDS011;67722;50.204;8.570;2023-02-28T18:14:10;5.40;;;3.95;;
78426;SDS011;67722;50.204;8.570;2023-02-28T18:16:36;6.15;;;3.83;;
78426;SDS011;67722;50.204;8.570;2023-02-28T18:19:01;6.68;;;2.33;;
78426;SDS011;67722;50.204;8.570;2023-02-28T18:21:30;4.95;;;2.88;;
78426;SDS011;67722;50.204;8.570;2023-02-28T18:23:56;5.70;;;2.67;;
78426;SDS011;67722;50.204;8.570;2023-02-28T18:26:22;4.13;;;2.40;;
78426;SDS011;67722;50.204;8.570;2023-02-28T18:28:47;5.50;;;2.60;;
78426;SDS011;67722;50.204;8.570;2023-02-28T18:31:16;5.13;;;2.70;;
78426;SDS011;67722;50.204;8.570;2023-02-28T18:33:43;7.20;;;3.42;;
78426;SDS011;67722;50.204;8.570;2023-02-28T18:36:09;5.78;;;3.03;;
78426;SDS011;67722;50.204;8.570;2023-02-28T18:38:35;5.18;;;3.45;;
78426;SDS011;67722;50.204;8.570;2023-02-28T18:41:02;6.18;;;2.53;;
78426;SDS011;67722;50.204;8.570;2023-02-28T18:43:29;5.03;;;3.38;;
78426;SDS011;67722;50.204;8.570;2023-02-28T18:45:56;4.72;;;2.85;;
78426;SDS011;67722;50.204;8.570;2023-02-28T18:48:22;6.00;;;3.15;;